sensor_id;sensor_type;location;lat;lon;timestamp;P1;durP1;ratioP1;P2;durP2;ratioP2
24644;SDS011;12780;45.502;9.146;2022-12-07T00:01:28;57.30;;;29.08;;
24644;SDS011;12780;45.502;9.146;2022-12-07T00:03:56;50.40;;;28.33;;
24644;SDS011;12780;45.502;9.146;2022-12-07T00:06:28;52.33;;;28.67;;
24644;SDS011;12780;45.502;9.146;2022-12-07T00:08:54;60.60;;;29.58;;
24644;SDS011;12780;45.502;9.146;2022-12-07T00:11:20;59.95;;;29.80;;
24644;SDS011;12780;45.502;9.146;2022-12-07T00:13:47;51.83;;;28.92;;
24644;SDS011;12780;45.502;9.146;2022-12-07T00:16:21;54.17;;;29.98;;
24644;SDS011;12780;45.502;9.146;2022-12-07T00:18:50;57.78;;;29.38;;
24644;SDS011;12780;45.502;9.146;2022-12-07T00:21:16;53.65;;;27.92;;
24644;SDS011;12780;45.502;9.146;2022-12-07T00:23:48;56.67;;;29.00;;
24644;SDS011;12780;45.502;9.146;2022-12-07T00:26:18;55.28;;;28.75;;
24644;SDS011;12780;45.502;9.146;2022-12-07T00:28:46;50.40;;;27.88;;
24644;SDS011;12780;45.502;9.146;2022-12-07T00:31:13;55.45;;;27.45;;
24644;SDS011;12780;45.502;9.146;2022-12-07T00:33:40;55.30;;;27.45;;
24644;SDS011;12780;45.502;9.146;2022-12-07T00:36:07;47.92;;;26.13;;
24644;SDS011;12780;45.502;9.146;2022-12-07T00:38:35;48.20;;;26.70;;
24644;SDS011;12780;45.502;9.146;2022-12-07T00:41:02;53.15;;;27.25;;
24644;SDS011;12780;45.502;9.146;2022-12-07T00:43:35;51.83;;;26.20;;
24644;SDS011;12780;45.502;9.146;2022-12-07T00:46:01;48.67;;;27.23;;
24644;SDS011;12780;45.502;9.146;2022-12-07T00:48:26;49.10;;;27.55;;
24644;SDS011;12780;45.502;9.146;2022-12-07T00:50:52;46.22;;;26.88;;
24644;SDS011;12780;45.502;9.146;2022-12-07T00:53:18;51.25;;;25.33;;
24644;SDS011;12780;45.502;9.146;2022-12-07T00:55:44;50.63;;;26.42;;
24644;SDS011;12780;45.502;9.146;2022-12-07T00:58:10;49.58;;;27.15;;
24644;SDS011;12780;45.502;9.146;2022-12-07T01:00:37;51.42;;;28.23;;
24644;SDS011;12780;45.502;9.146;2022-12-07T01:03:04;49.53;;;28.15;;
24644;SDS011;12780;45.502;9.146;2022-12-07T01:05:30;54.63;;;28.70;;
24644;SDS011;12780;45.502;9.146;2022-12-07T01:07:56;48.92;;;26.73;;
24644;SDS011;12780;45.502;9.146;2022-12-07T01:10:21;48.78;;;25.27;;
24644;SDS011;12780;45.502;9.146;2022-12-07T01:12:47;49.65;;;24.58;;
24644;SDS011;12780;45.502;9.146;2022-12-07T01:15:13;43.20;;;24.65;;
24644;SDS011;12780;45.502;9.146;2022-12-07T01:17:38;45.20;;;24.38;;
24644;SDS011;12780;45.502;9.146;2022-12-07T01:20:04;43.67;;;23.33;;
24644;SDS011;12780;45.502;9.146;2022-12-07T01:22:31;40.55;;;21.58;;
24644;SDS011;12780;45.502;9.146;2022-12-07T01:25:01;36.17;;;21.08;;
24644;SDS011;12780;45.502;9.146;2022-12-07T01:27:26;38.33;;;20.90;;
24644;SDS011;12780;45.502;9.146;2022-12-07T01:29:52;43.00;;;21.30;;
24644;SDS011;12780;45.502;9.146;2022-12-07T01:32:17;39.25;;;21.40;;
24644;SDS011;12780;45.502;9.146;2022-12-07T01:34:43;41.67;;;21.67;;
24644;SDS011;12780;45.502;9.146;2022-12-07T01:37:08;37.53;;;20.80;;
24644;SDS011;12780;45.502;9.146;2022-12-07T01:39:34;37.90;;;21.25;;
24644;SDS011;12780;45.502;9.146;2022-12-07T01:42:00;41.28;;;21.30;;
24644;SDS011;12780;45.502;9.146;2022-12-07T01:44:26;36.25;;;20.77;;
24644;SDS011;12780;45.502;9.146;2022-12-07T01:46:57;38.63;;;22.00;;
24644;SDS011;12780;45.502;9.146;2022-12-07T01:49:56;37.08;;;20.95;;
24644;SDS011;12780;45.502;9.146;2022-12-07T01:54:42;35.63;;;20.52;;
24644;SDS011;12780;45.502;9.146;2022-12-07T01:57:10;37.15;;;21.10;;
24644;SDS011;12780;45.502;9.146;2022-12-07T01:59:38;39.47;;;21.60;;
24644;SDS011;12780;45.502;9.146;2022-12-07T02:02:06;36.30;;;21.60;;
24644;SDS011;12780;45.502;9.146;2022-12-07T02:04:37;37.45;;;21.65;;
24644;SDS011;12780;45.502;9.146;2022-12-07T02:07:03;40.03;;;21.40;;
24644;SDS011;12780;45.502;9.146;2022-12-07T02:09:30;37.50;;;20.75;;
24644;SDS011;12780;45.502;9.146;2022-12-07T02:11:55;43.80;;;21.17;;
24644;SDS011;12780;45.502;9.146;2022-12-07T02:14:22;41.25;;;22.08;;
24644;SDS011;12780;45.502;9.146;2022-12-07T02:28:18;36.10;;;20.10;;
24644;SDS011;12780;45.502;9.146;2022-12-07T02:30:54;40.10;;;20.38;;
24644;SDS011;12780;45.502;9.146;2022-12-07T02:33:28;37.75;;;20.25;;
24644;SDS011;12780;45.502;9.146;2022-12-07T02:36:17;36.92;;;20.23;;
24644;SDS011;12780;45.502;9.146;2022-12-07T02:38:54;35.45;;;19.92;;
24644;SDS011;12780;45.502;9.146;2022-12-07T02:44:04;34.75;;;19.35;;
24644;SDS011;12780;45.502;9.146;2022-12-07T02:46:35;45.75;;;23.65;;
24644;SDS011;12780;45.502;9.146;2022-12-07T02:49:03;52.97;;;28.88;;
24644;SDS011;12780;45.502;9.146;2022-12-07T02:51:30;51.50;;;26.75;;
24644;SDS011;12780;45.502;9.146;2022-12-07T02:53:56;43.80;;;22.77;;
24644;SDS011;12780;45.502;9.146;2022-12-07T03:02:23;38.95;;;19.90;;
24644;SDS011;12780;45.502;9.146;2022-12-07T03:10:26;48.63;;;26.15;;
24644;SDS011;12780;45.502;9.146;2022-12-07T03:13:13;42.83;;;22.23;;
24644;SDS011;12780;45.502;9.146;2022-12-07T03:15:43;34.63;;;20.10;;
24644;SDS011;12780;45.502;9.146;2022-12-07T03:18:16;34.90;;;18.85;;
24644;SDS011;12780;45.502;9.146;2022-12-07T03:20:45;33.72;;;19.08;;
24644;SDS011;12780;45.502;9.146;2022-12-07T03:23:14;35.63;;;18.95;;
24644;SDS011;12780;45.502;9.146;2022-12-07T03:25:43;40.65;;;21.90;;
24644;SDS011;12780;45.502;9.146;2022-12-07T03:28:12;39.85;;;21.85;;
24644;SDS011;12780;45.502;9.146;2022-12-07T03:33:18;36.80;;;20.08;;
24644;SDS011;12780;45.502;9.146;2022-12-07T03:35:51;34.30;;;19.45;;
24644;SDS011;12780;45.502;9.146;2022-12-07T03:38:33;31.10;;;18.15;;
24644;SDS011;12780;45.502;9.146;2022-12-07T03:41:06;36.33;;;18.85;;
24644;SDS011;12780;45.502;9.146;2022-12-07T03:44:02;34.10;;;19.17;;
24644;SDS011;12780;45.502;9.146;2022-12-07T03:46:41;36.13;;;18.85;;
24644;SDS011;12780;45.502;9.146;2022-12-07T03:55:02;40.63;;;20.10;;
24644;SDS011;12780;45.502;9.146;2022-12-07T03:57:34;35.10;;;18.90;;
24644;SDS011;12780;45.502;9.146;2022-12-07T04:00:03;33.10;;;18.50;;
24644;SDS011;12780;45.502;9.146;2022-12-07T04:02:30;29.60;;;18.15;;
24644;SDS011;12780;45.502;9.146;2022-12-07T04:04:57;38.75;;;18.30;;
24644;SDS011;12780;45.502;9.146;2022-12-07T04:07:22;33.58;;;17.73;;
24644;SDS011;12780;45.502;9.146;2022-12-07T04:09:48;38.65;;;19.23;;
24644;SDS011;12780;45.502;9.146;2022-12-07T04:12:13;35.58;;;19.13;;
24644;SDS011;12780;45.502;9.146;2022-12-07T04:14:39;38.97;;;18.60;;
24644;SDS011;12780;45.502;9.146;2022-12-07T04:17:04;35.72;;;18.77;;
24644;SDS011;12780;45.502;9.146;2022-12-07T04:19:31;33.47;;;19.20;;
24644;SDS011;12780;45.502;9.146;2022-12-07T04:21:58;32.17;;;18.67;;
24644;SDS011;12780;45.502;9.146;2022-12-07T04:24:25;33.63;;;19.25;;
24644;SDS011;12780;45.502;9.146;2022-12-07T04:26:50;32.88;;;18.50;;
24644;SDS011;12780;45.502;9.146;2022-12-07T04:29:16;35.97;;;20.13;;
24644;SDS011;12780;45.502;9.146;2022-12-07T04:31:43;37.33;;;19.45;;
24644;SDS011;12780;45.502;9.146;2022-12-07T04:34:09;37.38;;;20.17;;
24644;SDS011;12780;45.502;9.146;2022-12-07T04:36:35;34.63;;;21.40;;
24644;SDS011;12780;45.502;9.146;2022-12-07T04:39:02;36.03;;;21.35;;
24644;SDS011;12780;45.502;9.146;2022-12-07T04:41:28;35.30;;;21.02;;
24644;SDS011;12780;45.502;9.146;2022-12-07T04:43:55;37.78;;;21.20;;
24644;SDS011;12780;45.502;9.146;2022-12-07T04:46:22;37.85;;;20.23;;
24644;SDS011;12780;45.502;9.146;2022-12-07T04:48:49;32.92;;;19.65;;
24644;SDS011;12780;45.502;9.146;2022-12-07T04:51:22;35.67;;;20.40;;
24644;SDS011;12780;45.502;9.146;2022-12-07T04:53:52;36.08;;;20.50;;
24644;SDS011;12780;45.502;9.146;2022-12-07T04:56:18;37.30;;;21.05;;
24644;SDS011;12780;45.502;9.146;2022-12-07T04:58:45;36.00;;;20.50;;
24644;SDS011;12780;45.502;9.146;2022-12-07T05:01:12;36.65;;;20.00;;
24644;SDS011;12780;45.502;9.146;2022-12-07T05:03:38;35.83;;;19.80;;
24644;SDS011;12780;45.502;9.146;2022-12-07T05:06:04;31.30;;;18.98;;
24644;SDS011;12780;45.502;9.146;2022-12-07T05:08:31;31.90;;;18.05;;
24644;SDS011;12780;45.502;9.146;2022-12-07T05:10:57;37.08;;;19.55;;
24644;SDS011;12780;45.502;9.146;2022-12-07T05:13:23;37.70;;;20.88;;
24644;SDS011;12780;45.502;9.146;2022-12-07T05:15:49;33.85;;;19.95;;
24644;SDS011;12780;45.502;9.146;2022-12-07T05:18:14;36.42;;;19.88;;
24644;SDS011;12780;45.502;9.146;2022-12-07T05:20:40;38.50;;;21.27;;
24644;SDS011;12780;45.502;9.146;2022-12-07T05:23:07;38.78;;;20.92;;
24644;SDS011;12780;45.502;9.146;2022-12-07T05:25:32;34.50;;;20.48;;
24644;SDS011;12780;45.502;9.146;2022-12-07T05:27:58;39.65;;;20.73;;
24644;SDS011;12780;45.502;9.146;2022-12-07T05:30:24;37.33;;;20.73;;
24644;SDS011;12780;45.502;9.146;2022-12-07T05:32:50;58.88;;;29.73;;
24644;SDS011;12780;45.502;9.146;2022-12-07T05:35:16;64.95;;;30.60;;
24644;SDS011;12780;45.502;9.146;2022-12-07T05:37:42;54.08;;;28.25;;
24644;SDS011;12780;45.502;9.146;2022-12-07T05:40:08;49.10;;;25.83;;
24644;SDS011;12780;45.502;9.146;2022-12-07T05:42:35;47.25;;;24.55;;
24644;SDS011;12780;45.502;9.146;2022-12-07T05:45:00;45.13;;;24.85;;
24644;SDS011;12780;45.502;9.146;2022-12-07T05:47:26;44.72;;;24.25;;
24644;SDS011;12780;45.502;9.146;2022-12-07T05:49:52;46.13;;;25.35;;
24644;SDS011;12780;45.502;9.146;2022-12-07T05:52:17;45.88;;;25.30;;
24644;SDS011;12780;45.502;9.146;2022-12-07T05:54:43;43.33;;;23.85;;
24644;SDS011;12780;45.502;9.146;2022-12-07T05:57:09;43.70;;;22.35;;
24644;SDS011;12780;45.502;9.146;2022-12-07T05:59:34;41.92;;;23.15;;
24644;SDS011;12780;45.502;9.146;2022-12-07T06:02:01;38.45;;;23.38;;
24644;SDS011;12780;45.502;9.146;2022-12-07T06:04:30;40.90;;;23.05;;
24644;SDS011;12780;45.502;9.146;2022-12-07T06:06:57;37.75;;;22.02;;
24644;SDS011;12780;45.502;9.146;2022-12-07T06:09:23;39.97;;;23.00;;
24644;SDS011;12780;45.502;9.146;2022-12-07T06:11:50;44.72;;;22.13;;
24644;SDS011;12780;45.502;9.146;2022-12-07T06:14:34;37.83;;;21.00;;
24644;SDS011;12780;45.502;9.146;2022-12-07T06:17:00;39.67;;;20.42;;
24644;SDS011;12780;45.502;9.146;2022-12-07T06:19:26;36.80;;;20.83;;
24644;SDS011;12780;45.502;9.146;2022-12-07T06:21:51;32.92;;;20.15;;
24644;SDS011;12780;45.502;9.146;2022-12-07T06:24:18;39.17;;;20.63;;
24644;SDS011;12780;45.502;9.146;2022-12-07T06:26:43;40.83;;;21.10;;
24644;SDS011;12780;45.502;9.146;2022-12-07T06:29:10;39.13;;;20.55;;
24644;SDS011;12780;45.502;9.146;2022-12-07T06:31:36;37.45;;;20.80;;
24644;SDS011;12780;45.502;9.146;2022-12-07T06:34:04;38.40;;;19.52;;
24644;SDS011;12780;45.502;9.146;2022-12-07T06:36:41;33.70;;;18.70;;
24644;SDS011;12780;45.502;9.146;2022-12-07T06:39:07;34.90;;;19.10;;
24644;SDS011;12780;45.502;9.146;2022-12-07T06:41:34;34.20;;;18.63;;
24644;SDS011;12780;45.502;9.146;2022-12-07T06:44:00;39.00;;;17.45;;
24644;SDS011;12780;45.502;9.146;2022-12-07T06:46:26;31.85;;;16.98;;
24644;SDS011;12780;45.502;9.146;2022-12-07T06:48:52;30.77;;;16.85;;
24644;SDS011;12780;45.502;9.146;2022-12-07T06:51:17;33.63;;;16.90;;
24644;SDS011;12780;45.502;9.146;2022-12-07T06:53:43;29.20;;;15.60;;
24644;SDS011;12780;45.502;9.146;2022-12-07T06:56:08;29.20;;;16.08;;
24644;SDS011;12780;45.502;9.146;2022-12-07T06:58:34;30.50;;;16.73;;
24644;SDS011;12780;45.502;9.146;2022-12-07T07:00:59;31.40;;;16.92;;
24644;SDS011;12780;45.502;9.146;2022-12-07T07:03:25;31.60;;;16.65;;
24644;SDS011;12780;45.502;9.146;2022-12-07T07:05:50;28.65;;;16.15;;
24644;SDS011;12780;45.502;9.146;2022-12-07T07:08:16;31.00;;;16.42;;
24644;SDS011;12780;45.502;9.146;2022-12-07T07:10:42;26.02;;;16.52;;
24644;SDS011;12780;45.502;9.146;2022-12-07T07:13:07;27.63;;;15.73;;
24644;SDS011;12780;45.502;9.146;2022-12-07T07:15:33;27.60;;;16.17;;
24644;SDS011;12780;45.502;9.146;2022-12-07T07:17:59;34.15;;;17.10;;
24644;SDS011;12780;45.502;9.146;2022-12-07T07:20:25;31.10;;;16.42;;
24644;SDS011;12780;45.502;9.146;2022-12-07T07:22:53;28.00;;;15.93;;
24644;SDS011;12780;45.502;9.146;2022-12-07T07:25:19;44.83;;;17.45;;
24644;SDS011;12780;45.502;9.146;2022-12-07T07:27:45;37.92;;;16.80;;
24644;SDS011;12780;45.502;9.146;2022-12-07T07:30:11;38.03;;;18.17;;
24644;SDS011;12780;45.502;9.146;2022-12-07T07:32:37;35.28;;;17.38;;
24644;SDS011;12780;45.502;9.146;2022-12-07T07:35:02;31.08;;;17.60;;
24644;SDS011;12780;45.502;9.146;2022-12-07T07:37:28;30.17;;;16.45;;
24644;SDS011;12780;45.502;9.146;2022-12-07T07:39:54;35.08;;;16.90;;
24644;SDS011;12780;45.502;9.146;2022-12-07T07:42:20;32.58;;;16.70;;
24644;SDS011;12780;45.502;9.146;2022-12-07T07:44:45;30.58;;;16.77;;
24644;SDS011;12780;45.502;9.146;2022-12-07T07:47:11;29.33;;;15.95;;
24644;SDS011;12780;45.502;9.146;2022-12-07T07:49:36;34.85;;;16.55;;
24644;SDS011;12780;45.502;9.146;2022-12-07T07:52:02;37.08;;;17.02;;
24644;SDS011;12780;45.502;9.146;2022-12-07T07:54:28;35.58;;;16.58;;
24644;SDS011;12780;45.502;9.146;2022-12-07T07:56:54;30.63;;;16.08;;
24644;SDS011;12780;45.502;9.146;2022-12-07T07:59:19;27.17;;;14.70;;
24644;SDS011;12780;45.502;9.146;2022-12-07T08:01:45;33.20;;;15.85;;
24644;SDS011;12780;45.502;9.146;2022-12-07T08:04:10;26.30;;;15.60;;
24644;SDS011;12780;45.502;9.146;2022-12-07T08:06:36;25.17;;;14.20;;
24644;SDS011;12780;45.502;9.146;2022-12-07T08:09:02;26.35;;;14.45;;
24644;SDS011;12780;45.502;9.146;2022-12-07T08:11:27;26.60;;;14.70;;
24644;SDS011;12780;45.502;9.146;2022-12-07T08:13:53;32.30;;;14.85;;
24644;SDS011;12780;45.502;9.146;2022-12-07T08:16:19;28.27;;;14.88;;
24644;SDS011;12780;45.502;9.146;2022-12-07T08:18:44;36.83;;;15.38;;
24644;SDS011;12780;45.502;9.146;2022-12-07T08:21:11;33.40;;;16.05;;
24644;SDS011;12780;45.502;9.146;2022-12-07T08:23:38;32.10;;;14.45;;
24644;SDS011;12780;45.502;9.146;2022-12-07T08:26:05;29.38;;;14.18;;
24644;SDS011;12780;45.502;9.146;2022-12-07T08:28:33;30.15;;;15.25;;
24644;SDS011;12780;45.502;9.146;2022-12-07T08:30:59;31.83;;;15.85;;
24644;SDS011;12780;45.502;9.146;2022-12-07T08:33:30;38.08;;;15.10;;
24644;SDS011;12780;45.502;9.146;2022-12-07T08:36:03;27.70;;;14.10;;
24644;SDS011;12780;45.502;9.146;2022-12-07T08:38:34;27.90;;;13.95;;
24644;SDS011;12780;45.502;9.146;2022-12-07T08:41:00;31.33;;;16.33;;
24644;SDS011;12780;45.502;9.146;2022-12-07T08:43:26;31.70;;;15.43;;
24644;SDS011;12780;45.502;9.146;2022-12-07T08:45:55;43.75;;;16.90;;
24644;SDS011;12780;45.502;9.146;2022-12-07T08:48:36;30.92;;;15.68;;
24644;SDS011;12780;45.502;9.146;2022-12-07T08:51:08;28.92;;;14.95;;
24644;SDS011;12780;45.502;9.146;2022-12-07T08:53:34;30.42;;;15.27;;
24644;SDS011;12780;45.502;9.146;2022-12-07T08:56:01;29.10;;;15.38;;
24644;SDS011;12780;45.502;9.146;2022-12-07T08:58:27;31.75;;;15.40;;
24644;SDS011;12780;45.502;9.146;2022-12-07T09:00:53;28.88;;;15.23;;
24644;SDS011;12780;45.502;9.146;2022-12-07T09:03:19;54.50;;;17.42;;
24644;SDS011;12780;45.502;9.146;2022-12-07T09:05:44;34.55;;;16.02;;
24644;SDS011;12780;45.502;9.146;2022-12-07T09:08:10;32.35;;;16.67;;
24644;SDS011;12780;45.502;9.146;2022-12-07T09:10:36;30.35;;;15.40;;
24644;SDS011;12780;45.502;9.146;2022-12-07T09:13:01;29.52;;;15.88;;
24644;SDS011;12780;45.502;9.146;2022-12-07T09:15:27;31.67;;;15.75;;
24644;SDS011;12780;45.502;9.146;2022-12-07T09:17:54;33.70;;;16.60;;
24644;SDS011;12780;45.502;9.146;2022-12-07T09:20:19;30.88;;;16.02;;
24644;SDS011;12780;45.502;9.146;2022-12-07T09:22:45;29.58;;;15.73;;
24644;SDS011;12780;45.502;9.146;2022-12-07T09:25:11;31.45;;;14.88;;
24644;SDS011;12780;45.502;9.146;2022-12-07T09:27:37;24.92;;;13.60;;
24644;SDS011;12780;45.502;9.146;2022-12-07T09:30:03;27.75;;;14.70;;
24644;SDS011;12780;45.502;9.146;2022-12-07T09:32:29;22.63;;;13.63;;
24644;SDS011;12780;45.502;9.146;2022-12-07T09:34:55;25.75;;;13.52;;
24644;SDS011;12780;45.502;9.146;2022-12-07T09:37:21;22.73;;;13.02;;
24644;SDS011;12780;45.502;9.146;2022-12-07T09:39:47;28.30;;;13.95;;
24644;SDS011;12780;45.502;9.146;2022-12-07T09:42:25;24.00;;;14.10;;
24644;SDS011;12780;45.502;9.146;2022-12-07T09:45:04;25.65;;;13.00;;
24644;SDS011;12780;45.502;9.146;2022-12-07T09:47:32;22.50;;;12.98;;
24644;SDS011;12780;45.502;9.146;2022-12-07T09:50:00;31.75;;;14.20;;
24644;SDS011;12780;45.502;9.146;2022-12-07T09:52:30;27.92;;;14.10;;
24644;SDS011;12780;45.502;9.146;2022-12-07T09:54:57;27.85;;;13.38;;
24644;SDS011;12780;45.502;9.146;2022-12-07T09:57:27;25.00;;;12.93;;
24644;SDS011;12780;45.502;9.146;2022-12-07T09:59:56;23.35;;;12.88;;
24644;SDS011;12780;45.502;9.146;2022-12-07T10:02:40;21.17;;;12.85;;
24644;SDS011;12780;45.502;9.146;2022-12-07T10:05:16;28.52;;;13.68;;
24644;SDS011;12780;45.502;9.146;2022-12-07T10:07:44;24.58;;;13.13;;
24644;SDS011;12780;45.502;9.146;2022-12-07T10:10:26;23.25;;;12.80;;
24644;SDS011;12780;45.502;9.146;2022-12-07T10:13:04;19.33;;;11.80;;
24644;SDS011;12780;45.502;9.146;2022-12-07T10:18:18;19.70;;;12.13;;
24644;SDS011;12780;45.502;9.146;2022-12-07T10:23:42;19.85;;;12.15;;
24644;SDS011;12780;45.502;9.146;2022-12-07T10:28:54;20.40;;;11.77;;
24644;SDS011;12780;45.502;9.146;2022-12-07T10:31:21;23.98;;;13.05;;
24644;SDS011;12780;45.502;9.146;2022-12-07T10:33:49;20.27;;;12.45;;
24644;SDS011;12780;45.502;9.146;2022-12-07T10:36:18;21.15;;;12.25;;
24644;SDS011;12780;45.502;9.146;2022-12-07T10:39:09;23.65;;;13.00;;
24644;SDS011;12780;45.502;9.146;2022-12-07T10:41:56;22.40;;;13.57;;
24644;SDS011;12780;45.502;9.146;2022-12-07T10:44:24;25.27;;;13.30;;
24644;SDS011;12780;45.502;9.146;2022-12-07T10:46:58;25.15;;;13.98;;
24644;SDS011;12780;45.502;9.146;2022-12-07T10:49:55;24.75;;;13.80;;
24644;SDS011;12780;45.502;9.146;2022-12-07T10:55:26;31.05;;;16.85;;
24644;SDS011;12780;45.502;9.146;2022-12-07T11:12:10;35.30;;;21.88;;
24644;SDS011;12780;45.502;9.146;2022-12-07T11:17:35;33.78;;;21.13;;
24644;SDS011;12780;45.502;9.146;2022-12-07T11:20:12;35.90;;;21.13;;
24644;SDS011;12780;45.502;9.146;2022-12-07T11:22:51;35.42;;;20.90;;
24644;SDS011;12780;45.502;9.146;2022-12-07T11:25:53;35.83;;;19.90;;
24644;SDS011;12780;45.502;9.146;2022-12-07T11:33:57;29.33;;;18.45;;
24644;SDS011;12780;45.502;9.146;2022-12-07T11:39:41;29.67;;;16.88;;
24644;SDS011;12780;45.502;9.146;2022-12-07T11:44:55;33.63;;;18.95;;
24644;SDS011;12780;45.502;9.146;2022-12-07T11:47:47;31.88;;;19.05;;
24644;SDS011;12780;45.502;9.146;2022-12-07T11:52:53;42.97;;;19.92;;
24644;SDS011;12780;45.502;9.146;2022-12-07T11:55:41;35.58;;;19.17;;
24644;SDS011;12780;45.502;9.146;2022-12-07T11:58:22;35.25;;;19.27;;
24644;SDS011;12780;45.502;9.146;2022-12-07T12:00:54;33.40;;;19.05;;
24644;SDS011;12780;45.502;9.146;2022-12-07T12:03:30;36.33;;;19.08;;
24644;SDS011;12780;45.502;9.146;2022-12-07T12:06:00;35.42;;;19.63;;
24644;SDS011;12780;45.502;9.146;2022-12-07T12:08:28;34.72;;;20.17;;
24644;SDS011;12780;45.502;9.146;2022-12-07T12:11:05;34.13;;;20.55;;
24644;SDS011;12780;45.502;9.146;2022-12-07T12:19:04;36.33;;;21.50;;
24644;SDS011;12780;45.502;9.146;2022-12-07T12:21:44;36.53;;;20.98;;
24644;SDS011;12780;45.502;9.146;2022-12-07T12:24:14;40.60;;;22.23;;
24644;SDS011;12780;45.502;9.146;2022-12-07T12:27:18;42.65;;;22.58;;
24644;SDS011;12780;45.502;9.146;2022-12-07T12:29:40;36.28;;;21.95;;
24644;SDS011;12780;45.502;9.146;2022-12-07T12:32:16;45.80;;;23.85;;
24644;SDS011;12780;45.502;9.146;2022-12-07T12:42:47;44.55;;;25.15;;
24644;SDS011;12780;45.502;9.146;2022-12-07T12:54:04;46.33;;;25.52;;
24644;SDS011;12780;45.502;9.146;2022-12-07T12:56:39;48.28;;;26.13;;
24644;SDS011;12780;45.502;9.146;2022-12-07T12:59:30;47.95;;;26.65;;
24644;SDS011;12780;45.502;9.146;2022-12-07T13:07:55;48.67;;;26.63;;
24644;SDS011;12780;45.502;9.146;2022-12-07T13:13:08;44.58;;;25.30;;
24644;SDS011;12780;45.502;9.146;2022-12-07T13:21:02;42.53;;;22.95;;
24644;SDS011;12780;45.502;9.146;2022-12-07T13:31:52;35.70;;;19.85;;
24644;SDS011;12780;45.502;9.146;2022-12-07T13:34:39;34.70;;;19.55;;
24644;SDS011;12780;45.502;9.146;2022-12-07T13:39:51;33.30;;;19.75;;
24644;SDS011;12780;45.502;9.146;2022-12-07T13:42:28;42.05;;;21.08;;
24644;SDS011;12780;45.502;9.146;2022-12-07T13:52:55;37.45;;;19.77;;
24644;SDS011;12780;45.502;9.146;2022-12-07T13:55:22;37.40;;;20.77;;
24644;SDS011;12780;45.502;9.146;2022-12-07T13:57:53;36.65;;;20.73;;
24644;SDS011;12780;45.502;9.146;2022-12-07T14:00:20;39.90;;;20.17;;
24644;SDS011;12780;45.502;9.146;2022-12-07T14:05:29;37.15;;;20.45;;
24644;SDS011;12780;45.502;9.146;2022-12-07T14:11:05;36.85;;;18.77;;
24644;SDS011;12780;45.502;9.146;2022-12-07T14:13:31;36.97;;;20.08;;
24644;SDS011;12780;45.502;9.146;2022-12-07T14:16:00;38.45;;;19.13;;
24644;SDS011;12780;45.502;9.146;2022-12-07T14:18:35;32.65;;;18.17;;
24644;SDS011;12780;45.502;9.146;2022-12-07T14:21:04;35.13;;;19.27;;
24644;SDS011;12780;45.502;9.146;2022-12-07T14:26:48;34.15;;;18.65;;
24644;SDS011;12780;45.502;9.146;2022-12-07T14:29:33;30.80;;;17.77;;
24644;SDS011;12780;45.502;9.146;2022-12-07T14:32:17;35.00;;;17.90;;
24644;SDS011;12780;45.502;9.146;2022-12-07T14:35:02;31.23;;;16.90;;
24644;SDS011;12780;45.502;9.146;2022-12-07T14:37:35;30.75;;;17.40;;
24644;SDS011;12780;45.502;9.146;2022-12-07T14:40:01;34.03;;;17.92;;
24644;SDS011;12780;45.502;9.146;2022-12-07T14:42:28;29.98;;;17.20;;
24644;SDS011;12780;45.502;9.146;2022-12-07T14:44:56;31.80;;;16.85;;
24644;SDS011;12780;45.502;9.146;2022-12-07T14:47:22;28.65;;;16.73;;
24644;SDS011;12780;45.502;9.146;2022-12-07T14:49:48;31.50;;;16.80;;
24644;SDS011;12780;45.502;9.146;2022-12-07T14:52:21;26.75;;;16.75;;
24644;SDS011;12780;45.502;9.146;2022-12-07T14:54:52;28.65;;;17.25;;
24644;SDS011;12780;45.502;9.146;2022-12-07T14:57:17;26.27;;;16.88;;
24644;SDS011;12780;45.502;9.146;2022-12-07T14:59:43;29.73;;;17.35;;
24644;SDS011;12780;45.502;9.146;2022-12-07T15:02:10;34.35;;;17.60;;
24644;SDS011;12780;45.502;9.146;2022-12-07T15:04:38;33.33;;;17.58;;
24644;SDS011;12780;45.502;9.146;2022-12-07T15:07:04;29.02;;;16.83;;
24644;SDS011;12780;45.502;9.146;2022-12-07T15:09:31;29.35;;;18.20;;
24644;SDS011;12780;45.502;9.146;2022-12-07T15:11:57;81.18;;;36.97;;
24644;SDS011;12780;45.502;9.146;2022-12-07T15:14:22;58.13;;;29.63;;
24644;SDS011;12780;45.502;9.146;2022-12-07T15:16:48;36.53;;;20.70;;
24644;SDS011;12780;45.502;9.146;2022-12-07T15:19:15;32.25;;;18.88;;
24644;SDS011;12780;45.502;9.146;2022-12-07T15:21:42;30.17;;;17.58;;
24644;SDS011;12780;45.502;9.146;2022-12-07T15:24:09;32.03;;;18.17;;
24644;SDS011;12780;45.502;9.146;2022-12-07T15:26:36;31.73;;;18.77;;
24644;SDS011;12780;45.502;9.146;2022-12-07T15:29:02;41.30;;;22.27;;
24644;SDS011;12780;45.502;9.146;2022-12-07T15:31:27;142.65;;;60.45;;
24644;SDS011;12780;45.502;9.146;2022-12-07T15:33:53;36.08;;;20.70;;
24644;SDS011;12780;45.502;9.146;2022-12-07T15:36:20;30.85;;;19.17;;
24644;SDS011;12780;45.502;9.146;2022-12-07T15:38:47;33.45;;;19.38;;
24644;SDS011;12780;45.502;9.146;2022-12-07T15:41:13;31.90;;;18.48;;
24644;SDS011;12780;45.502;9.146;2022-12-07T15:43:39;33.78;;;19.38;;
24644;SDS011;12780;45.502;9.146;2022-12-07T15:46:23;34.63;;;18.42;;
24644;SDS011;12780;45.502;9.146;2022-12-07T15:48:53;33.47;;;19.63;;
24644;SDS011;12780;45.502;9.146;2022-12-07T15:51:19;32.55;;;18.80;;
24644;SDS011;12780;45.502;9.146;2022-12-07T15:53:45;31.85;;;18.65;;
24644;SDS011;12780;45.502;9.146;2022-12-07T15:56:11;36.13;;;18.45;;
24644;SDS011;12780;45.502;9.146;2022-12-07T15:58:37;40.72;;;19.40;;
24644;SDS011;12780;45.502;9.146;2022-12-07T16:01:09;34.75;;;19.50;;
24644;SDS011;12780;45.502;9.146;2022-12-07T16:03:39;35.80;;;20.30;;
24644;SDS011;12780;45.502;9.146;2022-12-07T16:06:05;35.00;;;20.63;;
24644;SDS011;12780;45.502;9.146;2022-12-07T16:08:31;34.20;;;18.52;;
24644;SDS011;12780;45.502;9.146;2022-12-07T16:10:57;33.38;;;20.00;;
24644;SDS011;12780;45.502;9.146;2022-12-07T16:13:22;34.08;;;18.92;;
24644;SDS011;12780;45.502;9.146;2022-12-07T16:15:48;30.75;;;18.70;;
24644;SDS011;12780;45.502;9.146;2022-12-07T16:18:13;30.25;;;18.63;;
24644;SDS011;12780;45.502;9.146;2022-12-07T16:20:39;46.25;;;21.67;;
24644;SDS011;12780;45.502;9.146;2022-12-07T16:23:05;42.75;;;23.08;;
24644;SDS011;12780;45.502;9.146;2022-12-07T16:25:30;38.05;;;21.77;;
24644;SDS011;12780;45.502;9.146;2022-12-07T16:27:56;42.65;;;22.73;;
24644;SDS011;12780;45.502;9.146;2022-12-07T16:30:22;40.28;;;23.65;;
24644;SDS011;12780;45.502;9.146;2022-12-07T16:32:47;42.60;;;24.10;;
24644;SDS011;12780;45.502;9.146;2022-12-07T16:35:13;57.35;;;32.53;;
24644;SDS011;12780;45.502;9.146;2022-12-07T16:37:38;58.42;;;31.65;;
24644;SDS011;12780;45.502;9.146;2022-12-07T16:40:06;43.97;;;23.98;;
24644;SDS011;12780;45.502;9.146;2022-12-07T16:42:33;44.70;;;24.27;;
24644;SDS011;12780;45.502;9.146;2022-12-07T16:45:00;50.50;;;26.13;;
24644;SDS011;12780;45.502;9.146;2022-12-07T16:47:26;87.80;;;44.45;;
24644;SDS011;12780;45.502;9.146;2022-12-07T16:49:51;53.22;;;28.13;;
24644;SDS011;12780;45.502;9.146;2022-12-07T16:52:17;47.28;;;27.00;;
24644;SDS011;12780;45.502;9.146;2022-12-07T16:54:44;48.55;;;27.40;;